createdAt,value
2019-02-22T00:02:42.781Z,48.97
2019-02-22T00:05:12.326Z,51.30
2019-02-22T00:07:42.190Z,53.37
2019-02-22T00:10:11.768Z,54.87
2019-02-22T00:12:41.326Z,58.27
2019-02-22T00:15:12.780Z,55.60
2019-02-22T00:17:41.698Z,53.23
2019-02-22T00:20:11.286Z,55.13
2019-02-22T00:22:41.112Z,63.80
2019-02-22T00:25:10.719Z,60.80
2019-02-22T00:27:40.257Z,51.80
2019-02-22T00:30:13.649Z,55.67
2019-02-22T00:32:43.230Z,56.77
2019-02-22T00:35:16.131Z,55.30
2019-02-22T00:37:45.889Z,62.37
2019-02-22T00:40:18.745Z,51.80
2019-02-22T00:42:50.242Z,51.67
2019-02-22T00:45:23.016Z,54.27
2019-02-22T00:47:52.553Z,60.70
2019-02-22T00:50:23.593Z,53.77
2019-02-22T00:52:53.434Z,53.50
2019-02-22T00:55:29.060Z,55.47
2019-02-22T00:57:57.985Z,55.37
2019-02-22T01:00:30.320Z,53.07
2019-02-22T01:02:59.868Z,61.03
2019-02-22T01:05:32.537Z,55.00
2019-02-22T01:08:01.425Z,59.07
2019-02-22T01:10:36.257Z,58.20
2019-02-22T01:13:05.829Z,67.87
2019-02-22T01:15:35.792Z,70.30
2019-02-22T01:18:05.647Z,60.23
2019-02-22T01:20:39.365Z,61.27
2019-02-22T01:23:08.267Z,56.60
2019-02-22T01:25:43.725Z,59.27
2019-02-22T01:28:13.278Z,67.97
2019-02-22T01:30:45.886Z,60.40
2019-02-22T01:33:15.527Z,69.27
2019-02-22T01:35:48.157Z,66.40
2019-02-22T01:38:17.965Z,58.87
2019-02-22T01:40:51.640Z,61.83
2019-02-22T01:43:21.267Z,64.10
2019-02-22T01:45:53.823Z,66.87
2019-02-22T01:48:23.417Z,61.30
2019-02-22T01:50:59.794Z,60.50
2019-02-22T01:53:29.353Z,55.50
2019-02-22T01:56:02.043Z,59.37
2019-02-22T01:58:31.858Z,65.50
2019-02-22T02:01:06.689Z,53.20
2019-02-22T02:03:36.226Z,54.70
2019-02-22T02:06:10.226Z,55.43
2019-02-22T02:08:39.749Z,56.60
2019-02-22T02:11:12.677Z,58.57
2019-02-22T02:13:41.572Z,59.83
2019-02-22T02:16:14.227Z,58.80
2019-02-22T02:18:44.069Z,58.03
2019-02-22T02:21:20.790Z,63.53
2019-02-22T02:23:50.361Z,60.87
2019-02-22T02:26:20.357Z,62.93
2019-02-22T02:28:51.589Z,52.17
2019-02-22T02:31:21.951Z,62.50
2019-02-22T02:33:51.119Z,57.03
2019-02-22T02:36:23.718Z,59.87
2019-02-22T02:38:52.641Z,58.80
2019-02-22T02:41:26.935Z,59.40
2019-02-22T02:43:56.506Z,62.27
2019-02-22T02:46:28.556Z,63.57
2019-02-22T02:48:58.388Z,66.83
2019-02-22T02:51:33.246Z,71.70
2019-02-22T02:54:02.787Z,65.40
2019-02-22T02:56:35.375Z,64.70
2019-02-22T02:59:04.292Z,66.57
2019-02-22T03:01:38.282Z,58.27
2019-02-22T03:04:07.862Z,63.27
2019-02-22T03:06:48.025Z,69.13
2019-02-22T03:09:17.883Z,70.70
2019-02-22T03:11:46.811Z,61.40
2019-02-22T03:14:16.364Z,68.03
2019-02-22T03:16:46.210Z,67.30
2019-02-22T03:19:15.104Z,69.40
2019-02-22T03:21:47.484Z,67.47
2019-02-22T03:24:17.352Z,78.73
2019-02-22T03:26:51.513Z,81.00
2019-02-22T03:29:21.155Z,74.73
2019-02-22T03:31:56.204Z,77.27
2019-02-22T03:34:25.764Z,76.07
2019-02-22T03:36:56.438Z,80.63
2019-02-22T03:39:25.980Z,94.97
2019-02-22T03:42:02.915Z,95.10
2019-02-22T03:44:31.813Z,93.60
2019-02-22T03:47:04.186Z,95.37
2019-02-22T03:49:33.778Z,107.33
2019-02-22T03:52:24.069Z,99.53
2019-02-22T03:54:53.973Z,105.63
2019-02-22T03:57:23.519Z,106.63
2019-02-22T03:59:53.077Z,100.23
2019-02-22T04:02:22.259Z,111.73
2019-02-22T04:04:51.820Z,103.50
2019-02-22T04:07:21.525Z,121.30
2019-02-22T04:09:51.339Z,122.97
2019-02-22T04:12:20.267Z,122.83
2019-02-22T04:14:49.837Z,119.50
2019-02-22T04:17:22.476Z,121.43
2019-02-22T04:19:52.023Z,125.73
2019-02-22T04:22:24.467Z,122.57
2019-02-22T04:24:54.309Z,128.57
2019-02-22T04:27:25.681Z,133.27
2019-02-22T04:29:55.245Z,142.30
2019-02-22T04:32:28.797Z,134.80
2019-02-22T04:34:57.948Z,146.40
2019-02-22T04:37:31.808Z,151.93
2019-02-22T04:40:00.713Z,147.67
2019-02-22T04:42:32.927Z,141.20
2019-02-22T04:45:04.109Z,144.00
2019-02-22T04:47:37.751Z,156.37
2019-02-22T04:50:07.126Z,154.30
2019-02-22T04:52:38.690Z,145.47
2019-02-22T04:55:07.573Z,152.87
2019-02-22T04:57:42.673Z,152.37
2019-02-22T05:00:12.328Z,171.53
2019-02-22T05:02:45.086Z,164.00
2019-02-22T05:05:14.926Z,155.53
2019-02-22T05:07:47.274Z,161.20
2019-02-22T05:10:16.913Z,172.10
2019-02-22T05:12:51.270Z,151.57
2019-02-22T05:15:20.851Z,165.70
2019-02-22T05:17:53.553Z,171.07
2019-02-22T05:20:23.485Z,155.57
2019-02-22T05:23:03.946Z,168.77
2019-02-22T05:25:26.423Z,168.43
2019-02-22T05:27:59.656Z,160.30
2019-02-22T05:30:28.534Z,153.97
2019-02-22T05:33:03.108Z,162.27
2019-02-22T05:35:32.966Z,168.97
2019-02-22T05:38:05.851Z,160.57
2019-02-22T05:40:35.473Z,174.43
2019-02-22T05:43:08.513Z,161.40
2019-02-22T05:45:38.702Z,167.27
2019-02-22T05:48:14.323Z,152.20
2019-02-22T05:50:43.920Z,151.17
2019-02-22T05:53:16.653Z,142.00
2019-02-22T05:55:50.502Z,154.77
2019-02-22T05:58:20.055Z,156.97
2019-02-22T06:00:49.596Z,155.13
2019-02-22T06:03:20.496Z,161.47
2019-02-22T06:05:50.065Z,158.23
2019-02-22T06:08:22.158Z,160.90
2019-02-22T06:10:52.083Z,162.83
2019-02-22T06:13:24.688Z,163.00
2019-02-22T06:15:54.267Z,161.03
2019-02-22T06:18:27.264Z,160.47
2019-02-22T06:20:56.810Z,170.80
2019-02-22T06:23:32.633Z,171.87
2019-02-22T06:26:02.756Z,158.40
2019-02-22T06:28:35.434Z,156.07
2019-02-22T06:31:05.022Z,151.70
2019-02-22T06:33:38.114Z,150.97
2019-02-22T06:36:07.702Z,148.73
2019-02-22T06:38:36.848Z,162.00
2019-02-22T06:41:06.677Z,152.50
2019-02-22T06:43:40.424Z,151.70
2019-02-22T06:46:09.357Z,148.60
2019-02-22T06:48:50.786Z,145.90
2019-02-22T06:51:20.630Z,143.80
2019-02-22T06:53:50.224Z,142.43
2019-02-22T06:56:19.960Z,146.57
2019-02-22T06:58:52.329Z,151.47
2019-02-22T07:01:22.007Z,152.17
2019-02-22T07:03:52.788Z,145.30
2019-02-22T07:06:22.715Z,149.33
2019-02-22T07:08:58.429Z,147.07
2019-02-22T07:12:04.447Z,140.53
2019-02-22T07:14:34.314Z,151.83
2019-02-22T07:17:03.913Z,148.30
2019-02-22T07:19:33.482Z,137.00
2019-02-22T07:22:06.320Z,151.73
2019-02-22T07:24:35.226Z,146.87
2019-02-22T07:27:10.914Z,144.20
2019-02-22T07:29:44.462Z,154.27
2019-02-22T07:32:16.498Z,134.93
2019-02-22T07:34:46.090Z,139.60
2019-02-22T07:37:18.484Z,152.73
2019-02-22T07:39:48.301Z,149.20
2019-02-22T07:42:20.903Z,155.10
2019-02-22T07:44:51.997Z,151.67
2019-02-22T07:47:23.096Z,137.50
2019-02-22T07:49:52.918Z,150.00
2019-02-22T07:52:25.594Z,150.80
2019-02-22T07:54:55.152Z,151.00
2019-02-22T07:57:28.841Z,144.03
2019-02-22T07:59:57.905Z,154.37
2019-02-22T08:02:29.847Z,153.43
2019-02-22T08:04:59.643Z,144.67
2019-02-22T08:07:31.367Z,161.43
2019-02-22T08:10:01.355Z,156.47
2019-02-22T08:12:35.839Z,156.90
2019-02-22T08:15:05.182Z,159.57
2019-02-22T08:17:38.664Z,155.20
2019-02-22T08:20:08.563Z,152.57
2019-02-22T08:22:47.098Z,157.33
2019-02-22T08:25:16.095Z,155.63
2019-02-22T08:27:53.471Z,141.77
2019-02-22T08:30:17.778Z,155.90
2019-02-22T08:32:47.445Z,151.83
2019-02-22T08:35:17.529Z,141.77
2019-02-22T08:37:50.717Z,140.53
2019-02-22T08:40:20.046Z,136.43
2019-02-22T08:42:54.514Z,130.43
2019-02-22T08:45:24.118Z,133.60
2019-02-22T08:47:53.221Z,129.40
2019-02-22T08:50:23.341Z,128.33
2019-02-22T08:53:01.683Z,129.33
2019-02-22T08:55:31.790Z,131.10
2019-02-22T08:58:02.642Z,125.53
2019-02-22T09:00:31.573Z,118.77
2019-02-22T09:03:05.566Z,119.40
2019-02-22T09:05:35.146Z,117.27
2019-02-22T09:08:07.788Z,112.33
2019-02-22T09:10:36.686Z,114.50
2019-02-22T09:13:13.906Z,113.77
2019-02-22T09:15:43.137Z,107.60
2019-02-22T09:18:14.614Z,124.97
2019-02-22T09:20:44.205Z,113.53
2019-02-22T09:23:16.581Z,123.67
2019-02-22T09:25:46.145Z,91.20
2019-02-22T09:28:18.794Z,96.43
2019-02-22T09:30:48.636Z,80.57
2019-02-22T09:33:25.475Z,74.53
2019-02-22T09:35:55.061Z,71.97
2019-02-22T09:38:23.968Z,74.67
2019-02-22T09:40:52.881Z,80.33
2019-02-22T09:43:28.701Z,84.23
2019-02-22T09:45:57.642Z,72.97
2019-02-22T09:48:31.871Z,65.50
2019-02-22T09:51:03.577Z,61.33
2019-02-22T09:53:33.166Z,65.40
2019-02-22T09:56:03.342Z,66.63
2019-02-22T09:58:36.228Z,64.20
2019-02-22T10:01:05.747Z,78.43
2019-02-22T10:03:38.186Z,69.60
2019-02-22T10:06:07.132Z,63.23
2019-02-22T10:08:39.756Z,65.40
2019-02-22T10:11:08.657Z,68.50
2019-02-22T10:13:42.146Z,59.80
2019-02-22T10:16:12.002Z,71.87
2019-02-22T10:18:47.051Z,66.73
2019-02-22T10:21:16.579Z,78.83
2019-02-22T10:23:52.724Z,72.23
2019-02-22T10:26:22.294Z,70.63
2019-02-22T10:28:53.979Z,69.97
2019-02-22T10:31:24.846Z,65.30
2019-02-22T10:33:58.390Z,71.50
2019-02-22T10:36:27.969Z,70.87
2019-02-22T10:38:59.086Z,74.93
2019-02-22T10:41:28.657Z,74.77
2019-02-22T10:44:04.454Z,85.47
2019-02-22T10:46:34.029Z,72.77
2019-02-22T10:49:04.489Z,68.13
2019-02-22T10:51:34.395Z,66.33
2019-02-22T10:54:08.045Z,66.07
2019-02-22T10:56:39.287Z,64.33
2019-02-22T10:59:13.344Z,65.00
2019-02-22T11:01:42.930Z,59.10
2019-02-22T11:04:15.678Z,57.30
2019-02-22T11:06:45.263Z,51.37
2019-02-22T11:09:18.805Z,54.10
2019-02-22T11:11:48.132Z,51.93
2019-02-22T11:14:28.709Z,58.77
2019-02-22T11:16:52.573Z,49.73
2019-02-22T11:19:24.577Z,62.97
2019-02-22T11:21:54.098Z,55.30
2019-02-22T11:24:26.709Z,52.30
2019-02-22T11:26:56.273Z,57.80
2019-02-22T11:29:28.021Z,49.70
2019-02-22T11:31:57.627Z,50.83
2019-02-22T11:34:29.315Z,45.53
2019-02-22T11:36:59.149Z,42.83
2019-02-22T11:39:34.270Z,44.27
2019-02-22T11:42:03.216Z,50.60
2019-02-22T11:44:40.230Z,45.80
2019-02-22T11:47:06.693Z,37.00
2019-02-22T11:49:38.389Z,47.07
2019-02-22T11:52:08.229Z,47.10
2019-02-22T11:54:43.059Z,42.17
2019-02-22T11:57:13.135Z,41.37
2019-02-22T11:59:45.918Z,37.77
2019-02-22T12:02:14.900Z,37.30
2019-02-22T12:04:49.867Z,35.60
2019-02-22T12:07:19.994Z,40.67
2019-02-22T12:09:51.067Z,42.63
2019-02-22T12:12:20.641Z,39.03
2019-02-22T12:14:55.566Z,39.00
2019-02-22T12:17:25.147Z,34.70
2019-02-22T12:19:57.790Z,35.00
2019-02-22T12:22:27.794Z,34.37
2019-02-22T12:25:05.593Z,36.87
2019-02-22T12:27:34.894Z,35.77
2019-02-22T12:30:09.193Z,31.90
2019-02-22T12:32:39.656Z,31.47
2019-02-22T12:35:09.173Z,33.20
2019-02-22T12:37:39.259Z,33.20
2019-02-22T12:40:10.406Z,32.77
2019-02-22T12:42:39.715Z,34.10
2019-02-22T12:45:15.979Z,34.27
2019-02-22T12:47:45.604Z,29.73
2019-02-22T12:50:15.270Z,32.67
2019-02-22T12:52:45.135Z,27.17
2019-02-22T12:55:17.746Z,32.50
2019-02-22T12:57:46.680Z,22.17
2019-02-22T13:00:19.413Z,24.53
2019-02-22T13:02:48.999Z,25.63
2019-02-22T13:05:25.287Z,26.27
2019-02-22T13:07:55.113Z,29.97
2019-02-22T13:10:24.369Z,28.20
2019-02-22T13:12:54.051Z,28.83
2019-02-22T13:15:30.175Z,27.77
2019-02-22T13:17:59.186Z,32.50
2019-02-22T13:20:31.948Z,31.87
2019-02-22T13:23:03.713Z,28.93
2019-02-22T13:25:33.293Z,25.47
2019-02-22T13:28:03.485Z,30.77
2019-02-22T13:30:37.152Z,31.60
2019-02-22T13:33:06.714Z,30.60
2019-02-22T13:35:39.487Z,36.40
2019-02-22T13:38:09.774Z,36.93
2019-02-22T13:40:42.104Z,37.17
2019-02-22T13:43:11.679Z,37.50
2019-02-22T13:45:45.417Z,32.97
2019-02-22T13:48:15.021Z,33.27
2019-02-22T13:50:48.469Z,38.43
2019-02-22T13:53:18.363Z,35.97
2019-02-22T13:55:50.900Z,32.67
2019-02-22T13:58:20.441Z,33.10
2019-02-22T14:00:56.086Z,30.73
2019-02-22T14:03:25.649Z,33.53
2019-02-22T14:05:57.776Z,30.47
2019-02-22T14:08:27.371Z,32.83
2019-02-22T14:11:03.125Z,30.20
2019-02-22T14:13:32.813Z,28.80
2019-02-22T14:16:06.099Z,28.83
2019-02-22T14:18:36.222Z,26.47
2019-02-22T14:21:12.290Z,29.23
2019-02-22T14:23:41.864Z,29.17
2019-02-22T14:26:14.854Z,28.37
2019-02-22T14:28:44.466Z,29.17
2019-02-22T14:31:16.503Z,28.30
2019-02-22T14:33:46.360Z,30.50
2019-02-22T14:36:21.795Z,30.20
2019-02-22T14:38:51.328Z,26.73
2019-02-22T14:41:24.349Z,24.93
2019-02-22T14:43:53.277Z,29.23
2019-02-22T14:46:26.305Z,26.00
2019-02-22T14:48:55.910Z,28.60
2019-02-22T14:51:28.518Z,31.53
2019-02-22T14:53:58.366Z,32.50
2019-02-22T14:56:31.051Z,30.00
2019-02-22T14:59:02.503Z,31.20
2019-02-22T15:01:35.620Z,26.73
2019-02-22T15:04:06.155Z,26.23
2019-02-22T15:06:35.923Z,30.20
2019-02-22T15:09:06.442Z,32.37
2019-02-22T15:11:39.530Z,31.30
2019-02-22T15:14:09.074Z,26.03
2019-02-22T15:16:59.905Z,27.47
2019-02-22T15:19:29.665Z,27.97
2019-02-22T15:22:01.039Z,26.57
2019-02-22T15:24:29.826Z,23.90
2019-02-22T15:26:59.025Z,25.87
2019-02-22T15:29:27.903Z,26.10
2019-02-22T15:31:57.499Z,23.23
2019-02-22T15:34:27.335Z,18.43
2019-02-22T15:36:56.914Z,20.80
2019-02-22T15:39:27.374Z,22.93
2019-02-22T15:41:58.945Z,27.20
2019-02-22T15:44:28.549Z,22.40
2019-02-22T15:47:11.122Z,21.90
2019-02-22T15:49:31.325Z,19.50
2019-02-22T15:52:01.027Z,22.37
2019-02-22T15:54:29.976Z,21.37
2019-02-22T15:57:08.988Z,22.30
2019-02-22T15:59:42.222Z,24.37
2019-02-22T16:02:12.354Z,24.87
2019-02-22T16:05:08.456Z,23.63
2019-02-22T16:07:44.676Z,22.60
2019-02-22T16:10:19.644Z,23.57
2019-02-22T16:12:49.511Z,20.70
2019-02-22T16:15:24.273Z,19.37
2019-02-22T16:17:54.011Z,22.20
2019-02-22T16:20:26.088Z,27.07
2019-02-22T16:22:56.925Z,26.80
2019-02-22T16:25:26.868Z,24.13
2019-02-22T16:27:56.469Z,20.87
2019-02-22T16:30:31.709Z,21.57
2019-02-22T16:33:02.862Z,23.60
2019-02-22T16:35:32.005Z,27.23
2019-02-22T16:38:01.029Z,29.97
2019-02-22T16:40:30.648Z,23.97
2019-02-22T16:43:02.322Z,21.33
2019-02-22T16:45:35.083Z,23.80
2019-02-22T16:48:04.679Z,21.30
2019-02-22T16:50:37.790Z,26.83
2019-02-22T16:53:07.567Z,23.40
2019-02-22T16:55:39.932Z,21.27
2019-02-22T16:58:10.077Z,22.73
2019-02-22T17:00:42.850Z,24.47
2019-02-22T17:03:12.561Z,27.73
2019-02-22T17:05:45.488Z,25.43
2019-02-22T17:08:15.057Z,22.43
2019-02-22T17:10:49.240Z,27.17
2019-02-22T17:13:19.109Z,50.83
2019-02-22T17:15:51.468Z,40.13
2019-02-22T17:18:21.095Z,59.63
2019-02-22T17:20:53.043Z,34.70
2019-02-22T17:23:21.968Z,28.00
2019-02-22T17:25:56.372Z,26.73
2019-02-22T17:28:26.317Z,31.77
2019-02-22T17:31:02.233Z,21.17
2019-02-22T17:33:34.329Z,24.17
2019-02-22T17:36:04.049Z,31.07
2019-02-22T17:38:32.964Z,25.10
2019-02-22T17:41:05.977Z,29.13
2019-02-22T17:43:37.073Z,25.23
2019-02-22T17:46:09.472Z,29.67
2019-02-22T17:48:39.370Z,32.67
2019-02-22T17:51:15.789Z,32.23
2019-02-22T17:53:45.367Z,29.13
2019-02-22T17:56:14.988Z,31.20
2019-02-22T17:58:44.619Z,31.77
2019-02-22T18:01:19.510Z,36.53
2019-02-22T18:04:02.463Z,34.73
2019-02-22T18:06:32.310Z,32.77
2019-02-22T18:09:02.068Z,28.03
2019-02-22T18:11:31.726Z,38.63
2019-02-22T18:14:01.640Z,41.73
2019-02-22T18:16:31.460Z,38.73
2019-02-22T18:19:01.440Z,34.00
2019-02-22T18:21:30.627Z,35.27
2019-02-22T18:24:01.519Z,51.67
2019-02-22T18:26:30.709Z,35.57
2019-02-22T18:29:06.020Z,44.00
2019-02-22T18:31:37.265Z,35.40
2019-02-22T18:34:06.443Z,33.33
2019-02-22T18:36:36.106Z,29.60
2019-02-22T18:39:06.627Z,29.43
2019-02-22T18:41:39.280Z,29.50
2019-02-22T18:44:08.842Z,30.47
2019-02-22T18:46:41.615Z,36.77
2019-02-22T18:49:11.452Z,37.87
2019-02-22T18:51:45.962Z,36.40
2019-02-22T18:54:15.616Z,35.10
2019-02-22T18:56:48.491Z,40.33
2019-02-22T18:59:18.087Z,37.97
2019-02-22T19:01:49.028Z,37.30
2019-02-22T19:04:18.860Z,34.37
2019-02-22T19:06:52.687Z,34.33
2019-02-22T19:09:22.285Z,31.60
2019-02-22T19:11:55.665Z,31.30
2019-02-22T19:14:26.822Z,26.20
2019-02-22T19:16:58.560Z,24.80
2019-02-22T19:19:28.145Z,23.40
2019-02-22T19:22:01.875Z,24.37
2019-02-22T19:25:32.809Z,25.17
2019-02-22T19:28:05.592Z,22.97
2019-02-22T19:30:35.178Z,25.70
2019-02-22T19:33:07.425Z,22.63
2019-02-22T19:35:37.043Z,23.43
2019-02-22T19:38:12.701Z,19.43
2019-02-22T19:40:42.346Z,17.80
2019-02-22T19:43:15.999Z,20.50
2019-02-22T19:45:45.557Z,16.03
2019-02-22T19:48:17.535Z,19.70
2019-02-22T19:50:48.107Z,19.33
2019-02-22T19:53:21.580Z,19.50
2019-02-22T19:55:51.749Z,18.50
2019-02-22T19:58:25.112Z,18.77
2019-02-22T20:00:54.773Z,18.53
2019-02-22T20:03:24.715Z,23.33
2019-02-22T20:05:54.354Z,18.50
2019-02-22T20:08:30.074Z,21.23
2019-02-22T20:10:58.998Z,20.63
2019-02-22T20:13:31.610Z,23.37
2019-02-22T20:16:01.215Z,23.17
2019-02-22T20:18:33.570Z,21.77
2019-02-22T20:21:03.577Z,22.90
2019-02-22T20:23:36.029Z,23.77
2019-02-22T20:26:05.887Z,21.93
2019-02-22T20:28:42.876Z,20.43
2019-02-22T20:31:19.832Z,21.90
2019-02-22T20:33:44.373Z,25.07
2019-02-22T20:36:15.779Z,29.97
2019-02-22T20:38:45.334Z,29.43
2019-02-22T20:41:21.583Z,25.20
2019-02-22T20:43:50.737Z,27.10
2019-02-22T20:46:26.149Z,28.97
2019-02-22T20:49:00.884Z,35.83
2019-02-22T20:54:06.058Z,38.50
2019-02-22T20:56:35.634Z,30.03
2019-02-22T20:59:05.203Z,32.10
2019-02-22T21:01:35.171Z,24.97
2019-02-22T21:04:04.731Z,25.23
2019-02-22T21:06:34.306Z,28.17
2019-02-22T21:09:04.982Z,25.33
2019-02-22T21:11:39.121Z,22.20
2019-02-22T21:14:08.728Z,22.97
2019-02-22T21:16:43.225Z,24.03
2019-02-22T21:19:12.198Z,25.43
2019-02-22T21:21:44.937Z,22.40
2019-02-22T21:24:14.549Z,24.50
2019-02-22T21:26:47.409Z,25.20
2019-02-22T21:29:16.633Z,35.73
2019-02-22T21:31:47.833Z,28.67
2019-02-22T21:34:17.697Z,32.87
2019-02-22T21:36:53.054Z,35.50
2019-02-22T21:39:25.213Z,48.93
2019-02-22T21:41:54.134Z,48.20
2019-02-22T21:44:23.031Z,43.87
2019-02-22T21:46:56.640Z,51.50
2019-02-22T21:49:27.221Z,56.30
2019-02-22T21:51:59.161Z,63.67
2019-02-22T21:54:28.726Z,62.27
2019-02-22T21:57:04.249Z,54.73
2019-02-22T21:59:34.133Z,49.97
2019-02-22T22:02:06.765Z,53.07
2019-02-22T22:04:35.702Z,52.60
2019-02-22T22:07:20.937Z,55.23
2019-02-22T22:09:50.653Z,59.53
2019-02-22T22:12:20.490Z,54.13
2019-02-22T22:14:49.508Z,59.57
2019-02-22T22:17:20.326Z,70.07
2019-02-22T22:19:50.253Z,68.23
2019-02-22T22:22:19.850Z,79.23
2019-02-22T22:24:49.456Z,72.80
2019-02-22T22:27:19.627Z,75.40
2019-02-22T22:29:49.251Z,76.30
2019-02-22T22:32:29.354Z,70.67
2019-02-22T22:34:58.698Z,68.67
2019-02-22T22:37:28.321Z,79.93
2019-02-22T22:39:57.249Z,70.27
2019-02-22T22:42:27.173Z,74.30
2019-02-22T22:44:57.252Z,79.33
2019-02-22T22:47:29.285Z,71.53
2019-02-22T22:49:58.484Z,69.83
2019-02-22T22:52:35.789Z,68.73
2019-02-22T22:55:05.452Z,67.37
2019-02-22T22:57:39.050Z,69.00
2019-02-22T23:00:37.747Z,64.17
2019-02-22T23:03:07.601Z,65.23
2019-02-22T23:05:40.266Z,69.37
2019-02-22T23:08:10.003Z,65.53
2019-02-22T23:10:42.466Z,67.13
2019-02-22T23:13:11.542Z,66.80
2019-02-22T23:15:45.056Z,67.33
2019-02-22T23:18:14.878Z,62.07
2019-02-22T23:20:49.584Z,66.30
2019-02-22T23:23:18.478Z,57.27
2019-02-22T23:25:51.436Z,67.30
2019-02-22T23:28:21.042Z,62.03
2019-02-22T23:30:56.593Z,60.40
2019-02-22T23:33:25.858Z,59.90
2019-02-22T23:36:00.199Z,69.17
2019-02-22T23:38:29.450Z,63.37
2019-02-22T23:40:58.365Z,62.53
2019-02-22T23:43:27.905Z,59.97
2019-02-22T23:45:57.754Z,56.33
2019-02-22T23:48:27.666Z,55.40
2019-02-22T23:50:57.211Z,48.33
2019-02-22T23:53:26.157Z,53.80
2019-02-22T23:55:55.737Z,45.93
2019-02-22T23:58:25.314Z,46.03
